sensor_id;sensor_type;location;lat;lon;timestamp;pressure;altitude;pressure_sealevel;temperature;humidity
32251;BME280;41295;48.518;9.206;2023-02-15T00:01:55;98476.88;;;2.32;66.01
32251;BME280;41295;48.518;9.206;2023-02-15T00:04:00;98471.75;;;2.34;65.52
32251;BME280;41295;48.518;9.206;2023-02-15T00:06:03;98473.47;;;2.35;66.06
32251;BME280;41295;48.518;9.206;2023-02-15T00:08:05;98471.78;;;2.37;65.66
32251;BME280;41295;48.518;9.206;2023-02-15T00:10:08;98467.53;;;2.39;65.14
32251;BME280;41295;48.518;9.206;2023-02-15T00:12:14;98465.72;;;2.32;64.80
32251;BME280;41295;48.518;9.206;2023-02-15T00:14:19;98467.41;;;2.31;65.33
32251;BME280;41295;48.518;9.206;2023-02-15T00:16:21;98463.00;;;2.24;66.31
32251;BME280;41295;48.518;9.206;2023-02-15T00:18:24;98459.47;;;2.17;66.74
32251;BME280;41295;48.518;9.206;2023-02-15T00:20:28;98462.00;;;2.14;66.97
32251;BME280;41295;48.518;9.206;2023-02-15T00:22:31;98458.56;;;2.13;67.37
32251;BME280;41295;48.518;9.206;2023-02-15T00:24:33;98464.59;;;2.14;66.57
32251;BME280;41295;48.518;9.206;2023-02-15T00:26:37;98456.00;;;2.13;67.12
32251;BME280;41295;48.518;9.206;2023-02-15T00:28:40;98455.06;;;2.10;66.45
32251;BME280;41295;48.518;9.206;2023-02-15T00:30:42;98456.78;;;2.09;66.31
32251;BME280;41295;48.518;9.206;2023-02-15T00:32:47;98448.22;;;2.10;65.90
32251;BME280;41295;48.518;9.206;2023-02-15T00:34:50;98447.28;;;2.05;66.09
32251;BME280;41295;48.518;9.206;2023-02-15T00:36:54;98454.09;;;2.01;66.14
32251;BME280;41295;48.518;9.206;2023-02-15T00:38:56;98452.31;;;1.99;67.22
32251;BME280;41295;48.518;9.206;2023-02-15T00:41:01;98447.16;;;1.97;67.02
32251;BME280;41295;48.518;9.206;2023-02-15T00:43:04;98445.50;;;1.99;68.02
32251;BME280;41295;48.518;9.206;2023-02-15T00:45:07;98447.22;;;2.02;67.74
32251;BME280;41295;48.518;9.206;2023-02-15T00:47:10;98436.09;;;2.03;67.27
32251;BME280;41295;48.518;9.206;2023-02-15T00:49:12;98437.84;;;2.06;67.45
32251;BME280;41295;48.518;9.206;2023-02-15T00:51:15;98436.94;;;2.02;67.32
32251;BME280;41295;48.518;9.206;2023-02-15T00:53:20;98442.91;;;1.98;66.94
32251;BME280;41295;48.518;9.206;2023-02-15T00:55:23;98441.22;;;2.00;66.54
32251;BME280;41295;48.518;9.206;2023-02-15T00:57:26;98436.84;;;1.96;66.51
32251;BME280;41295;48.518;9.206;2023-02-15T00:59:28;98434.28;;;1.96;65.96
32251;BME280;41295;48.518;9.206;2023-02-15T01:01:31;98439.25;;;1.85;65.95
32251;BME280;41295;48.518;9.206;2023-02-15T01:03:33;98437.50;;;1.82;65.75
32251;BME280;41295;48.518;9.206;2023-02-15T01:05:36;98442.53;;;1.76;66.19
32251;BME280;41295;48.518;9.206;2023-02-15T01:07:39;98439.13;;;1.77;67.17
32251;BME280;41295;48.518;9.206;2023-02-15T01:09:43;98442.50;;;1.74;66.67
32251;BME280;41295;48.518;9.206;2023-02-15T01:11:45;98439.09;;;1.75;66.62
32251;BME280;41295;48.518;9.206;2023-02-15T01:13:49;98432.19;;;1.73;66.94
32251;BME280;41295;48.518;9.206;2023-02-15T01:15:53;98434.81;;;1.74;66.27
32251;BME280;41295;48.518;9.206;2023-02-15T01:17:56;98441.63;;;1.74;66.29
32251;BME280;41295;48.518;9.206;2023-02-15T01:19:59;98433.88;;;1.71;65.53
32251;BME280;41295;48.518;9.206;2023-02-15T01:22:02;98427.03;;;1.70;65.99
32251;BME280;41295;48.518;9.206;2023-02-15T01:24:05;98430.38;;;1.67;66.26
32251;BME280;41295;48.518;9.206;2023-02-15T01:26:09;98431.25;;;1.66;66.32
32251;BME280;41295;48.518;9.206;2023-02-15T01:28:12;98440.72;;;1.70;66.49
32251;BME280;41295;48.518;9.206;2023-02-15T01:30:15;98436.38;;;1.64;66.63
32251;BME280;41295;48.518;9.206;2023-02-15T01:32:21;98438.84;;;1.61;66.29
32251;BME280;41295;48.518;9.206;2023-02-15T01:34:23;98433.69;;;1.60;66.68
32251;BME280;41295;48.518;9.206;2023-02-15T01:36:26;98436.25;;;1.60;65.92
32251;BME280;41295;48.518;9.206;2023-02-15T01:38:29;98436.28;;;1.61;66.04
32251;BME280;41295;48.518;9.206;2023-02-15T01:40:31;98440.53;;;1.59;66.42
32251;BME280;41295;48.518;9.206;2023-02-15T01:42:35;98430.31;;;1.61;66.65
32251;BME280;41295;48.518;9.206;2023-02-15T01:44:50;98432.03;;;1.63;66.27
32251;BME280;41295;48.518;9.206;2023-02-15T01:46:52;98426.94;;;1.66;66.87
32251;BME280;41295;48.518;9.206;2023-02-15T01:49:00;98423.50;;;1.64;66.72
32251;BME280;41295;48.518;9.206;2023-02-15T01:51:03;98427.78;;;1.65;66.18
32251;BME280;41295;48.518;9.206;2023-02-15T01:53:09;98429.47;;;1.63;66.21
32251;BME280;41295;48.518;9.206;2023-02-15T01:55:15;98428.59;;;1.63;66.18
32251;BME280;41295;48.518;9.206;2023-02-15T01:57:22;98425.16;;;1.61;65.91
32251;BME280;41295;48.518;9.206;2023-02-15T01:59:27;98429.38;;;1.57;65.88
32251;BME280;41295;48.518;9.206;2023-02-15T02:01:30;98423.34;;;1.55;66.20
32251;BME280;41295;48.518;9.206;2023-02-15T02:03:39;98420.75;;;1.53;66.55
32251;BME280;41295;48.518;9.206;2023-02-15T02:05:44;98420.72;;;1.52;65.97
32251;BME280;41295;48.518;9.206;2023-02-15T02:07:48;98422.41;;;1.50;65.57
32251;BME280;41295;48.518;9.206;2023-02-15T02:09:52;98417.28;;;1.51;65.83
32251;BME280;41295;48.518;9.206;2023-02-15T02:11:55;98412.97;;;1.50;65.92
32251;BME280;41295;48.518;9.206;2023-02-15T02:13:57;98414.72;;;1.53;66.33
32251;BME280;41295;48.518;9.206;2023-02-15T02:16:08;98412.97;;;1.50;66.91
32251;BME280;41295;48.518;9.206;2023-02-15T02:18:23;98412.97;;;1.50;67.97
32251;BME280;41295;48.518;9.206;2023-02-15T02:23:18;98401.75;;;1.47;66.94
32251;BME280;41295;48.518;9.206;2023-02-15T02:25:42;98406.94;;;1.48;67.51
32251;BME280;41295;48.518;9.206;2023-02-15T02:27:50;98401.84;;;1.50;67.25
32251;BME280;41295;48.518;9.206;2023-02-15T02:30:54;98394.97;;;1.50;67.85
32251;BME280;41295;48.518;9.206;2023-02-15T02:33:20;98400.16;;;1.52;67.96
32251;BME280;41295;48.518;9.206;2023-02-15T02:35:30;98407.03;;;1.54;68.08
32251;BME280;41295;48.518;9.206;2023-02-15T02:37:59;98398.44;;;1.54;67.41
32251;BME280;41295;48.518;9.206;2023-02-15T02:40:08;98403.56;;;1.52;67.15
32251;BME280;41295;48.518;9.206;2023-02-15T02:42:18;98403.56;;;1.52;65.59
32251;BME280;41295;48.518;9.206;2023-02-15T02:44:28;98412.09;;;1.48;66.35
32251;BME280;41295;48.518;9.206;2023-02-15T02:46:34;98410.38;;;1.50;65.82
32251;BME280;41295;48.518;9.206;2023-02-15T02:48:40;98394.91;;;1.47;65.62
32251;BME280;41295;48.518;9.206;2023-02-15T02:50:43;98394.91;;;1.46;65.09
32251;BME280;41295;48.518;9.206;2023-02-15T02:52:48;98404.22;;;1.40;64.71
32251;BME280;41295;48.518;9.206;2023-02-15T02:54:50;98396.47;;;1.36;64.92
32251;BME280;41295;48.518;9.206;2023-02-15T02:56:54;98400.72;;;1.35;64.80
32251;BME280;41295;48.518;9.206;2023-02-15T02:59:02;98396.34;;;1.31;64.95
32251;BME280;41295;48.518;9.206;2023-02-15T03:01:12;98399.81;;;1.33;64.34
32251;BME280;41295;48.518;9.206;2023-02-15T03:03:20;98399.66;;;1.25;64.30
32251;BME280;41295;48.518;9.206;2023-02-15T03:05:28;98402.22;;;1.24;65.24
32251;BME280;41295;48.518;9.206;2023-02-15T03:07:33;98395.22;;;1.16;65.51
32251;BME280;41295;48.518;9.206;2023-02-15T03:09:39;98397.72;;;1.10;65.41
32251;BME280;41295;48.518;9.206;2023-02-15T03:11:44;98395.97;;;1.09;65.97
32251;BME280;41295;48.518;9.206;2023-02-15T03:13:48;98395.00;;;1.04;66.81
32251;BME280;41295;48.518;9.206;2023-02-15T03:15:52;98400.13;;;1.02;66.94
32251;BME280;41295;48.518;9.206;2023-02-15T03:18:16;98395.84;;;1.03;67.48
32251;BME280;41295;48.518;9.206;2023-02-15T03:20:22;98401.84;;;1.02;67.81
32251;BME280;41295;48.518;9.206;2023-02-15T03:22:30;98403.53;;;1.01;68.47
32251;BME280;41295;48.518;9.206;2023-02-15T03:24:39;98397.44;;;0.96;68.47
32251;BME280;41295;48.518;9.206;2023-02-15T03:26:46;98392.38;;;0.99;68.44
32251;BME280;41295;48.518;9.206;2023-02-15T03:28:50;98388.00;;;0.95;68.29
32251;BME280;41295;48.518;9.206;2023-02-15T03:30:58;98388.09;;;1.00;68.51
32251;BME280;41295;48.518;9.206;2023-02-15T03:33:03;98386.44;;;1.02;67.99
32251;BME280;41295;48.518;9.206;2023-02-15T03:35:07;98377.03;;;1.04;67.51
32251;BME280;41295;48.518;9.206;2023-02-15T03:37:13;98380.50;;;1.06;66.82
32251;BME280;41295;48.518;9.206;2023-02-15T03:39:21;98378.81;;;1.06;67.00
32251;BME280;41295;48.518;9.206;2023-02-15T03:41:26;98377.06;;;1.05;66.17
32251;BME280;41295;48.518;9.206;2023-02-15T03:43:32;98383.09;;;1.07;66.61
32251;BME280;41295;48.518;9.206;2023-02-15T03:45:42;98387.34;;;1.05;66.29
32251;BME280;41295;48.518;9.206;2023-02-15T03:47:57;98385.63;;;1.06;67.12
32251;BME280;41295;48.518;9.206;2023-02-15T03:50:04;98382.25;;;1.07;66.43
32251;BME280;41295;48.518;9.206;2023-02-15T03:52:29;98384.84;;;1.08;67.03
32251;BME280;41295;48.518;9.206;2023-02-15T03:54:35;98377.97;;;1.09;67.31
32251;BME280;41295;48.518;9.206;2023-02-15T03:56:44;98383.97;;;1.10;66.94
32251;BME280;41295;48.518;9.206;2023-02-15T03:59:07;98383.09;;;1.09;66.16
32251;BME280;41295;48.518;9.206;2023-02-15T04:01:33;98383.16;;;1.11;65.42
32251;BME280;41295;48.518;9.206;2023-02-15T04:03:57;98393.50;;;1.14;64.81
32251;BME280;41295;48.518;9.206;2023-02-15T04:06:02;98382.31;;;1.12;65.35
32251;BME280;41295;48.518;9.206;2023-02-15T04:08:06;98387.44;;;1.10;64.60
32251;BME280;41295;48.518;9.206;2023-02-15T04:10:10;98387.44;;;1.10;64.80
32251;BME280;41295;48.518;9.206;2023-02-15T04:12:30;98389.06;;;1.05;64.97
32251;BME280;41295;48.518;9.206;2023-02-15T04:14:33;98381.28;;;1.02;64.77
32251;BME280;41295;48.518;9.206;2023-02-15T04:16:53;98385.56;;;1.01;65.55
32251;BME280;41295;48.518;9.206;2023-02-15T04:18:56;98382.97;;;1.00;64.61
32251;BME280;41295;48.518;9.206;2023-02-15T04:21:16;98376.94;;;0.99;64.61
32251;BME280;41295;48.518;9.206;2023-02-15T04:23:36;98382.06;;;0.98;64.14
32251;BME280;41295;48.518;9.206;2023-02-15T04:25:58;98383.69;;;0.92;64.34
32251;BME280;41295;48.518;9.206;2023-02-15T04:28:01;98380.25;;;0.92;64.33
32251;BME280;41295;48.518;9.206;2023-02-15T04:30:05;98382.75;;;0.89;64.34
32251;BME280;41295;48.518;9.206;2023-02-15T04:32:08;98382.75;;;0.89;64.73
32251;BME280;41295;48.518;9.206;2023-02-15T04:34:10;98377.59;;;0.87;64.95
32251;BME280;41295;48.518;9.206;2023-02-15T04:36:13;98383.56;;;0.88;65.00
32251;BME280;41295;48.518;9.206;2023-02-15T04:38:15;98385.28;;;0.86;65.20
32251;BME280;41295;48.518;9.206;2023-02-15T04:40:18;98386.03;;;0.81;65.30
32251;BME280;41295;48.518;9.206;2023-02-15T04:42:22;98389.47;;;0.80;65.76
32251;BME280;41295;48.518;9.206;2023-02-15T04:44:24;98382.50;;;0.75;66.34
32251;BME280;41295;48.518;9.206;2023-02-15T04:46:28;98382.50;;;0.75;66.38
32251;BME280;41295;48.518;9.206;2023-02-15T04:48:30;98377.31;;;0.73;66.19
32251;BME280;41295;48.518;9.206;2023-02-15T04:50:34;98367.06;;;0.73;66.61
32251;BME280;41295;48.518;9.206;2023-02-15T04:52:36;98369.66;;;0.75;66.58
32251;BME280;41295;48.518;9.206;2023-02-15T04:54:39;98367.91;;;0.74;66.04
32251;BME280;41295;48.518;9.206;2023-02-15T04:56:42;98366.22;;;0.74;66.46
32251;BME280;41295;48.518;9.206;2023-02-15T04:58:46;98367.09;;;0.75;65.63
32251;BME280;41295;48.518;9.206;2023-02-15T05:00:49;98359.34;;;0.73;65.61
32251;BME280;41295;48.518;9.206;2023-02-15T05:02:51;98353.34;;;0.73;65.92
32251;BME280;41295;48.518;9.206;2023-02-15T05:04:54;98345.72;;;0.77;65.34
32251;BME280;41295;48.518;9.206;2023-02-15T05:06:56;98346.59;;;0.78;65.82
32251;BME280;41295;48.518;9.206;2023-02-15T05:08:59;98347.47;;;0.78;65.19
32251;BME280;41295;48.518;9.206;2023-02-15T05:11:01;98349.19;;;0.79;65.31
32251;BME280;41295;48.518;9.206;2023-02-15T05:13:04;98353.38;;;0.74;64.70
32251;BME280;41295;48.518;9.206;2023-02-15T05:15:08;98356.72;;;0.71;65.03
32251;BME280;41295;48.518;9.206;2023-02-15T05:17:11;98355.84;;;0.69;65.59
32251;BME280;41295;48.518;9.206;2023-02-15T05:19:14;98356.69;;;0.68;66.08
32251;BME280;41295;48.518;9.206;2023-02-15T05:21:16;98364.38;;;0.68;66.17
32251;BME280;41295;48.518;9.206;2023-02-15T05:23:19;98354.16;;;0.71;66.50
32251;BME280;41295;48.518;9.206;2023-02-15T05:25:21;98362.72;;;0.70;67.05
32251;BME280;41295;48.518;9.206;2023-02-15T05:27:42;98361.94;;;0.73;66.14
32251;BME280;41295;48.518;9.206;2023-02-15T05:30:06;98353.31;;;0.71;66.16
32251;BME280;41295;48.518;9.206;2023-02-15T05:32:16;98358.47;;;0.73;66.22
32251;BME280;41295;48.518;9.206;2023-02-15T05:34:19;98355.94;;;0.74;65.86
32251;BME280;41295;48.518;9.206;2023-02-15T05:36:21;98362.75;;;0.74;65.37
32251;BME280;41295;48.518;9.206;2023-02-15T05:38:24;98361.88;;;0.71;65.35
32251;BME280;41295;48.518;9.206;2023-02-15T05:40:27;98366.03;;;0.66;65.14
32251;BME280;41295;48.518;9.206;2023-02-15T05:42:29;98366.09;;;0.68;64.68
32251;BME280;41295;48.518;9.206;2023-02-15T05:44:32;98369.50;;;0.67;64.84
32251;BME280;41295;48.518;9.206;2023-02-15T05:46:34;98364.38;;;0.68;65.50
32251;BME280;41295;48.518;9.206;2023-02-15T05:48:38;98372.06;;;0.67;64.66
32251;BME280;41295;48.518;9.206;2023-02-15T05:50:41;98371.16;;;0.65;64.86
32251;BME280;41295;48.518;9.206;2023-02-15T05:52:44;98369.41;;;0.62;65.24
32251;BME280;41295;48.518;9.206;2023-02-15T05:54:46;98379.69;;;0.64;65.22
32251;BME280;41295;48.518;9.206;2023-02-15T05:56:49;98376.25;;;0.62;66.15
32251;BME280;41295;48.518;9.206;2023-02-15T05:58:52;98376.28;;;0.65;66.39
32251;BME280;41295;48.518;9.206;2023-02-15T06:00:57;98371.19;;;0.66;65.85
32251;BME280;41295;48.518;9.206;2023-02-15T06:03:00;98368.69;;;0.69;65.69
32251;BME280;41295;48.518;9.206;2023-02-15T06:05:04;98374.66;;;0.68;64.81
32251;BME280;41295;48.518;9.206;2023-02-15T06:07:07;98368.56;;;0.63;64.80
32251;BME280;41295;48.518;9.206;2023-02-15T06:09:10;98374.53;;;0.62;65.49
32251;BME280;41295;48.518;9.206;2023-02-15T06:11:13;98368.38;;;0.54;65.56
32251;BME280;41295;48.518;9.206;2023-02-15T06:13:15;98374.28;;;0.50;65.33
32251;BME280;41295;48.518;9.206;2023-02-15T06:15:18;98371.03;;;0.57;65.79
32251;BME280;41295;48.518;9.206;2023-02-15T06:17:21;98376.81;;;0.46;66.44
32251;BME280;41295;48.518;9.206;2023-02-15T06:19:23;98371.59;;;0.43;67.62
32251;BME280;41295;48.518;9.206;2023-02-15T06:21:28;98367.28;;;0.41;67.31
32251;BME280;41295;48.518;9.206;2023-02-15T06:23:30;98376.56;;;0.35;67.35
32251;BME280;41295;48.518;9.206;2023-02-15T06:25:33;98378.28;;;0.37;67.31
32251;BME280;41295;48.518;9.206;2023-02-15T06:27:40;98382.63;;;0.39;67.01
32251;BME280;41295;48.518;9.206;2023-02-15T06:29:43;98382.56;;;0.38;66.99
32251;BME280;41295;48.518;9.206;2023-02-15T06:31:46;98386.97;;;0.43;66.50
32251;BME280;41295;48.518;9.206;2023-02-15T06:33:51;98392.78;;;0.34;66.04
32251;BME280;41295;48.518;9.206;2023-02-15T06:35:53;98391.84;;;0.31;66.17
32251;BME280;41295;48.518;9.206;2023-02-15T06:37:57;98396.97;;;0.31;66.70
32251;BME280;41295;48.518;9.206;2023-02-15T06:40:00;98401.34;;;0.33;66.47
32251;BME280;41295;48.518;9.206;2023-02-15T06:42:04;98396.16;;;0.32;66.25
32251;BME280;41295;48.518;9.206;2023-02-15T06:44:07;98389.44;;;0.37;67.09
32251;BME280;41295;48.518;9.206;2023-02-15T06:46:09;98397.13;;;0.37;66.52
32251;BME280;41295;48.518;9.206;2023-02-15T06:48:12;98399.69;;;0.37;66.57
32251;BME280;41295;48.518;9.206;2023-02-15T06:50:15;98399.75;;;0.40;66.00
32251;BME280;41295;48.518;9.206;2023-02-15T06:52:18;98395.53;;;0.42;65.40
32251;BME280;41295;48.518;9.206;2023-02-15T06:54:22;98398.09;;;0.42;65.64
32251;BME280;41295;48.518;9.206;2023-02-15T06:56:24;98404.13;;;0.44;65.91
32251;BME280;41295;48.518;9.206;2023-02-15T06:58:27;98406.69;;;0.44;65.07
32251;BME280;41295;48.518;9.206;2023-02-15T07:00:30;98405.75;;;0.41;65.54
32251;BME280;41295;48.518;9.206;2023-02-15T07:02:32;98404.84;;;0.39;65.14
32251;BME280;41295;48.518;9.206;2023-02-15T07:04:35;98409.06;;;0.35;65.60
32251;BME280;41295;48.518;9.206;2023-02-15T07:06:38;98409.03;;;0.33;66.01
32251;BME280;41295;48.518;9.206;2023-02-15T07:08:41;98406.44;;;0.32;66.02
32251;BME280;41295;48.518;9.206;2023-02-15T07:10:45;98408.16;;;0.33;66.03
32251;BME280;41295;48.518;9.206;2023-02-15T07:12:48;98406.50;;;0.35;66.38
32251;BME280;41295;48.518;9.206;2023-02-15T07:14:49;98411.63;;;0.35;66.83
32251;BME280;41295;48.518;9.206;2023-02-15T07:16:52;98407.38;;;0.35;66.28
32251;BME280;41295;48.518;9.206;2023-02-15T07:18:55;98404.91;;;0.42;66.29
32251;BME280;41295;48.518;9.206;2023-02-15T07:20:57;98404.88;;;0.40;65.89
32251;BME280;41295;48.518;9.206;2023-02-15T07:23:00;98403.22;;;0.42;66.03
32251;BME280;41295;48.518;9.206;2023-02-15T07:25:02;98412.66;;;0.43;66.38
32251;BME280;41295;48.518;9.206;2023-02-15T07:27:07;98408.44;;;0.47;66.44
32251;BME280;41295;48.518;9.206;2023-02-15T07:29:10;98409.38;;;0.51;67.65
32251;BME280;41295;48.518;9.206;2023-02-15T07:31:12;98412.00;;;0.54;68.04
32251;BME280;41295;48.518;9.206;2023-02-15T07:33:15;98410.47;;;0.61;68.08
32251;BME280;41295;48.518;9.206;2023-02-15T07:35:28;98408.81;;;0.64;67.72
32251;BME280;41295;48.518;9.206;2023-02-15T07:37:30;98403.75;;;0.67;67.94
32251;BME280;41295;48.518;9.206;2023-02-15T07:39:33;98406.38;;;0.70;68.16
32251;BME280;41295;48.518;9.206;2023-02-15T07:41:36;98401.31;;;0.75;68.63
32251;BME280;41295;48.518;9.206;2023-02-15T07:43:41;98402.28;;;0.80;68.51
32251;BME280;41295;48.518;9.206;2023-02-15T07:45:44;98407.47;;;0.83;69.13
32251;BME280;41295;48.518;9.206;2023-02-15T07:47:47;98394.75;;;0.90;68.91
32251;BME280;41295;48.518;9.206;2023-02-15T07:49:49;98390.50;;;0.92;68.56
32251;BME280;41295;48.518;9.206;2023-02-15T07:51:52;98395.66;;;0.93;68.74
32251;BME280;41295;48.518;9.206;2023-02-15T07:53:55;98387.22;;;0.99;69.16
32251;BME280;41295;48.518;9.206;2023-02-15T07:55:58;98390.75;;;1.04;69.11
32251;BME280;41295;48.518;9.206;2023-02-15T07:58:01;98385.69;;;1.09;69.50
32251;BME280;41295;48.518;9.206;2023-02-15T08:00:07;98393.47;;;1.12;69.88
32251;BME280;41295;48.518;9.206;2023-02-15T08:02:10;98385.00;;;1.18;69.56
32251;BME280;41295;48.518;9.206;2023-02-15T08:04:12;98383.34;;;1.22;69.77
32251;BME280;41295;48.518;9.206;2023-02-15T08:06:16;98385.16;;;1.27;69.99
32251;BME280;41295;48.518;9.206;2023-02-15T08:08:18;98383.50;;;1.31;69.89
32251;BME280;41295;48.518;9.206;2023-02-15T08:10:31;98387.84;;;1.34;70.18
32251;BME280;41295;48.518;9.206;2023-02-15T08:12:48;98378.53;;;1.40;69.90
32251;BME280;41295;48.518;9.206;2023-02-15T08:14:50;98381.16;;;1.45;69.47
32251;BME280;41295;48.518;9.206;2023-02-15T08:16:55;98378.66;;;1.48;69.34
32251;BME280;41295;48.518;9.206;2023-02-15T08:18:59;98382.16;;;1.52;69.94
32251;BME280;41295;48.518;9.206;2023-02-15T08:21:02;98387.44;;;1.61;69.79
32251;BME280;41295;48.518;9.206;2023-02-15T08:23:06;98380.59;;;1.62;69.03
32251;BME280;41295;48.518;9.206;2023-02-15T08:25:08;98382.31;;;1.63;69.01
32251;BME280;41295;48.518;9.206;2023-02-15T08:27:11;98384.97;;;1.67;68.97
32251;BME280;41295;48.518;9.206;2023-02-15T08:29:14;98392.06;;;1.84;67.41
32251;BME280;41295;48.518;9.206;2023-02-15T08:31:17;98388.78;;;1.93;67.52
32251;BME280;41295;48.518;9.206;2023-02-15T08:33:21;98387.81;;;1.86;67.85
32251;BME280;41295;48.518;9.206;2023-02-15T08:35:24;98385.38;;;1.94;67.13
32251;BME280;41295;48.518;9.206;2023-02-15T08:37:27;98380.97;;;1.85;67.81
32251;BME280;41295;48.518;9.206;2023-02-15T08:39:29;98379.28;;;1.87;68.69
32251;BME280;41295;48.518;9.206;2023-02-15T08:41:33;98381.84;;;1.87;68.76
32251;BME280;41295;48.518;9.206;2023-02-15T08:43:37;98377.63;;;1.91;69.01
32251;BME280;41295;48.518;9.206;2023-02-15T08:45:40;98378.47;;;1.93;69.04
32251;BME280;41295;48.518;9.206;2023-02-15T08:47:43;98383.72;;;1.98;68.88
32251;BME280;41295;48.518;9.206;2023-02-15T08:49:49;98380.41;;;2.05;68.72
32251;BME280;41295;48.518;9.206;2023-02-15T08:51:52;98374.41;;;2.08;69.02
32251;BME280;41295;48.518;9.206;2023-02-15T08:53:56;98380.56;;;2.16;68.72
32251;BME280;41295;48.518;9.206;2023-02-15T08:55:59;98382.25;;;2.15;69.27
32251;BME280;41295;48.518;9.206;2023-02-15T08:58:02;98374.56;;;2.19;69.11
32251;BME280;41295;48.518;9.206;2023-02-15T09:00:06;98376.34;;;2.21;68.88
32251;BME280;41295;48.518;9.206;2023-02-15T09:02:09;98377.25;;;2.25;68.32
32251;BME280;41295;48.518;9.206;2023-02-15T09:04:12;98378.97;;;2.27;68.56
32251;BME280;41295;48.518;9.206;2023-02-15T09:06:18;98373.22;;;2.46;67.13
32251;BME280;41295;48.518;9.206;2023-02-15T09:08:21;98366.28;;;2.42;67.86
32251;BME280;41295;48.518;9.206;2023-02-15T09:10:24;98373.09;;;2.38;67.77
32251;BME280;41295;48.518;9.206;2023-02-15T09:12:26;98375.69;;;2.38;67.59
32251;BME280;41295;48.518;9.206;2023-02-15T09:14:29;98369.69;;;2.39;67.91
32251;BME280;41295;48.518;9.206;2023-02-15T09:16:34;98375.69;;;2.39;67.79
32251;BME280;41295;48.518;9.206;2023-02-15T09:18:38;98373.16;;;2.41;67.38
32251;BME280;41295;48.518;9.206;2023-02-15T09:20:41;98365.47;;;2.43;68.05
32251;BME280;41295;48.518;9.206;2023-02-15T09:22:45;98358.63;;;2.45;67.92
32251;BME280;41295;48.518;9.206;2023-02-15T09:24:47;98362.06;;;2.47;68.20
32251;BME280;41295;48.518;9.206;2023-02-15T09:26:50;98354.41;;;2.51;67.74
32251;BME280;41295;48.518;9.206;2023-02-15T09:28:54;98361.28;;;2.54;67.95
32251;BME280;41295;48.518;9.206;2023-02-15T09:31:04;98363.94;;;2.59;67.53
32251;BME280;41295;48.518;9.206;2023-02-15T09:33:07;98364.81;;;2.61;68.15
32251;BME280;41295;48.518;9.206;2023-02-15T09:35:11;98359.69;;;2.62;67.31
32251;BME280;41295;48.518;9.206;2023-02-15T09:37:14;98361.41;;;2.65;67.72
32251;BME280;41295;48.518;9.206;2023-02-15T09:39:19;98358.88;;;2.68;67.39
32251;BME280;41295;48.518;9.206;2023-02-15T09:44:26;98353.84;;;2.78;67.11
32251;BME280;41295;48.518;9.206;2023-02-15T09:46:45;98359.84;;;2.78;66.78
32251;BME280;41295;48.518;9.206;2023-02-15T09:48:52;98362.47;;;2.83;66.92
32251;BME280;41295;48.518;9.206;2023-02-15T09:51:16;98361.69;;;2.87;66.67
32251;BME280;41295;48.518;9.206;2023-02-15T09:53:32;98359.13;;;2.90;66.41
32251;BME280;41295;48.518;9.206;2023-02-15T09:55:48;98349.72;;;2.94;66.74
32251;BME280;41295;48.518;9.206;2023-02-15T09:58:01;98350.63;;;2.97;66.51
32251;BME280;41295;48.518;9.206;2023-02-15T10:00:12;98351.50;;;3.01;66.61
32251;BME280;41295;48.518;9.206;2023-02-15T10:02:27;98348.06;;;3.02;66.27
32251;BME280;41295;48.518;9.206;2023-02-15T10:04:49;98342.19;;;3.12;66.80
32251;BME280;41295;48.518;9.206;2023-02-15T10:07:06;98340.50;;;3.16;66.47
32251;BME280;41295;48.518;9.206;2023-02-15T10:09:27;98343.09;;;3.19;67.19
32251;BME280;41295;48.518;9.206;2023-02-15T10:11:48;98344.00;;;3.26;66.63
32251;BME280;41295;48.518;9.206;2023-02-15T10:14:06;98337.19;;;3.31;67.02
32251;BME280;41295;48.518;9.206;2023-02-15T10:16:19;98335.47;;;3.33;66.71
32251;BME280;41295;48.518;9.206;2023-02-15T10:18:39;98330.38;;;3.40;66.71
32251;BME280;41295;48.518;9.206;2023-02-15T10:20:54;98333.00;;;3.44;67.22
32251;BME280;41295;48.518;9.206;2023-02-15T10:23:20;98328.72;;;3.46;67.38
32251;BME280;41295;48.518;9.206;2023-02-15T10:25:31;98326.16;;;3.51;66.80
32251;BME280;41295;48.518;9.206;2023-02-15T10:27:38;98325.34;;;3.54;67.03
32251;BME280;41295;48.518;9.206;2023-02-15T10:29:48;98327.06;;;3.58;66.94
32251;BME280;41295;48.518;9.206;2023-02-15T10:31:56;98321.16;;;3.71;66.90
32251;BME280;41295;48.518;9.206;2023-02-15T10:34:14;98317.72;;;3.69;66.91
32251;BME280;41295;48.518;9.206;2023-02-15T10:36:27;98311.69;;;3.73;66.98
32251;BME280;41295;48.518;9.206;2023-02-15T10:38:39;98310.88;;;3.76;67.49
32251;BME280;41295;48.518;9.206;2023-02-15T10:40:54;98314.34;;;3.80;66.95
32251;BME280;41295;48.518;9.206;2023-02-15T10:43:17;98304.03;;;3.81;67.72
32251;BME280;41295;48.518;9.206;2023-02-15T10:45:28;98313.53;;;3.87;67.13
32251;BME280;41295;48.518;9.206;2023-02-15T10:48:01;98302.38;;;3.91;67.30
32251;BME280;41295;48.518;9.206;2023-02-15T10:50:22;98304.97;;;3.96;67.23
32251;BME280;41295;48.518;9.206;2023-02-15T10:52:37;98304.16;;;4.00;67.57
32251;BME280;41295;48.518;9.206;2023-02-15T10:54:48;98294.66;;;4.02;67.09
32251;BME280;41295;48.518;9.206;2023-02-15T10:57:02;98287.03;;;4.23;66.73
32251;BME280;41295;48.518;9.206;2023-02-15T10:59:22;98289.56;;;4.16;66.59
32251;BME280;41295;48.518;9.206;2023-02-15T11:01:31;98285.28;;;4.15;66.24
32251;BME280;41295;48.518;9.206;2023-02-15T11:03:49;98281.81;;;4.16;66.45
32251;BME280;41295;48.518;9.206;2023-02-15T11:06:03;98277.53;;;4.18;66.60
32251;BME280;41295;48.518;9.206;2023-02-15T11:08:09;98273.25;;;4.22;66.86
32251;BME280;41295;48.518;9.206;2023-02-15T11:10:22;98280.16;;;4.25;66.73
32251;BME280;41295;48.518;9.206;2023-02-15T11:12:29;98272.41;;;4.28;66.74
32251;BME280;41295;48.518;9.206;2023-02-15T11:14:38;98278.47;;;4.31;66.97
32251;BME280;41295;48.518;9.206;2023-02-15T11:16:45;98267.25;;;4.31;66.87
32251;BME280;41295;48.518;9.206;2023-02-15T11:18:53;98275.00;;;4.32;66.39
32251;BME280;41295;48.518;9.206;2023-02-15T11:21:00;98271.59;;;4.35;66.48
32251;BME280;41295;48.518;9.206;2023-02-15T11:23:13;98266.41;;;4.37;66.67
32251;BME280;41295;48.518;9.206;2023-02-15T11:25:19;98266.47;;;4.43;66.25